createdAt,value
2018-06-03T00:01:39.504Z,100564.20
2018-06-03T00:04:07.995Z,100565.31
2018-06-03T00:06:36.535Z,100565.70
2018-06-03T00:09:05.788Z,100568.20
2018-06-03T00:11:34.283Z,100564.52
2018-06-03T00:14:02.788Z,100568.11
2018-06-03T00:16:31.355Z,100568.11
2018-06-03T00:18:59.802Z,100566.97
2018-06-03T00:21:51.423Z,100568.06
2018-06-03T00:24:19.976Z,100562.31
2018-06-03T00:26:48.487Z,100574.62
2018-06-03T00:29:17.011Z,100566.41
2018-06-03T00:31:45.534Z,100575.91
2018-06-03T00:34:14.077Z,100572.68
2018-06-03T00:36:47.852Z,100572.95
2018-06-03T00:39:16.505Z,100572.19
2018-06-03T00:41:45.011Z,100565.21
2018-06-03T00:44:13.500Z,100564.23
2018-06-03T00:46:41.996Z,100567.07
2018-06-03T00:49:10.556Z,100566.48
2018-06-03T00:51:39.052Z,100571.54
2018-06-03T00:54:07.832Z,100568.27
2018-06-03T00:56:47.461Z,100566.93
2018-06-03T00:59:15.949Z,100572.68
2018-06-03T01:01:44.392Z,100566.78
2018-06-03T01:04:12.892Z,100569.41
2018-06-03T01:06:41.535Z,100568.54
2018-06-03T01:09:10.068Z,100563.59
2018-06-03T01:11:38.756Z,100563.14
2018-06-03T01:14:10.776Z,100549.77
2018-06-03T01:16:39.392Z,100552.34
2018-06-03T01:19:07.825Z,100552.37
2018-06-03T01:21:36.352Z,100547.02
2018-06-03T01:24:04.876Z,100551.56
2018-06-03T01:26:33.447Z,100543.63
2018-06-03T01:29:02.196Z,100541.16
2018-06-03T01:31:30.755Z,100547.70
2018-06-03T01:33:59.220Z,100549.23
2018-06-03T01:36:27.744Z,100541.55
2018-06-03T01:38:56.207Z,100539.25
2018-06-03T01:41:24.755Z,100546.63
2018-06-03T01:43:53.291Z,100543.52
2018-06-03T01:46:21.807Z,100539.14
2018-06-03T01:48:50.266Z,100544.28
2018-06-03T01:51:18.789Z,100541.34
2018-06-03T01:53:47.259Z,100537.98
2018-06-03T01:56:15.723Z,100536.11
2018-06-03T01:58:44.200Z,100537.52
2018-06-03T02:01:12.701Z,100540.16
2018-06-03T02:03:41.147Z,100536.07
2018-06-03T02:06:09.635Z,100538.75
2018-06-03T02:08:38.100Z,100530.70
2018-06-03T02:11:06.664Z,100533.86
2018-06-03T02:13:35.204Z,100526.88
2018-06-03T02:16:04.012Z,100523.88
2018-06-03T02:18:32.644Z,100519.85
2018-06-03T02:21:01.064Z,100519.13
2018-06-03T02:23:29.708Z,100519.92
2018-06-03T02:25:58.156Z,100519.45
2018-06-03T02:28:26.712Z,100514.23
2018-06-03T02:30:55.152Z,100514.56
2018-06-03T02:33:23.596Z,100519.52
2018-06-03T02:35:52.251Z,100517.86
2018-06-03T02:38:20.707Z,100515.25
2018-06-03T02:40:49.141Z,100515.11
2018-06-03T02:43:17.640Z,100516.87
2018-06-03T02:45:46.173Z,100515.25
2018-06-03T02:48:15.135Z,100521.14
2018-06-03T02:50:43.587Z,100522.75
2018-06-03T02:53:12.064Z,100521.39
2018-06-03T02:55:40.608Z,100523.81
2018-06-03T02:58:09.024Z,100518.78
2018-06-03T03:00:37.704Z,100518.99
2018-06-03T03:03:06.148Z,100520.05
2018-06-03T03:05:34.583Z,100523.01
2018-06-03T03:08:03.037Z,100518.30
2018-06-03T03:10:31.540Z,100528.86
2018-06-03T03:13:00.280Z,100524.18
2018-06-03T03:15:28.811Z,100523.17
2018-06-03T03:17:57.295Z,100515.48
2018-06-03T03:20:25.744Z,100522.92
2018-06-03T03:22:54.187Z,100516.36
2018-06-03T03:25:22.709Z,100511.77
2018-06-03T03:27:51.176Z,100510.73
2018-06-03T03:30:19.679Z,100513.74
2018-06-03T03:32:48.174Z,100508.27
2018-06-03T03:35:16.747Z,100506.45
2018-06-03T03:37:45.628Z,100505.42
2018-06-03T03:40:14.207Z,100508.57
2018-06-03T03:42:42.641Z,100517.66
2018-06-03T03:45:11.172Z,100517.17
2018-06-03T03:47:39.627Z,100512.00
2018-06-03T03:50:08.099Z,100506.99
2018-06-03T03:52:36.543Z,100511.87
2018-06-03T03:55:05.220Z,100519.57
2018-06-03T03:57:33.715Z,100521.64
2018-06-03T04:00:02.252Z,100520.04
2018-06-03T04:02:30.726Z,100520.30
2018-06-03T04:04:59.223Z,100518.13
2018-06-03T04:07:27.966Z,100522.73
2018-06-03T04:09:56.543Z,100527.35
2018-06-03T04:12:24.992Z,100535.72
2018-06-03T04:14:53.536Z,100534.27
2018-06-03T04:17:22.063Z,100534.12
2018-06-03T04:19:50.639Z,100537.34
2018-06-03T04:22:19.167Z,100535.79
2018-06-03T04:24:47.651Z,100536.41
2018-06-03T04:27:16.184Z,100534.94
2018-06-03T04:29:44.649Z,100539.08
2018-06-03T04:32:13.424Z,100541.03
2018-06-03T04:34:41.936Z,100544.12
2018-06-03T04:37:10.451Z,100527.87
2018-06-03T04:39:38.947Z,100535.06
2018-06-03T04:42:07.439Z,100538.14
2018-06-03T04:44:36.199Z,100537.88
2018-06-03T04:47:04.659Z,100545.30
2018-06-03T04:49:33.099Z,100546.70
2018-06-03T04:52:01.634Z,100546.23
2018-06-03T04:54:30.136Z,100548.34
2018-06-03T04:56:58.606Z,100549.33
2018-06-03T04:59:27.073Z,100551.00
2018-06-03T05:01:55.583Z,100544.02
2018-06-03T05:04:24.119Z,100552.56
2018-06-03T05:06:52.671Z,100552.28
2018-06-03T05:09:21.344Z,100551.29
2018-06-03T05:11:49.796Z,100556.13
2018-06-03T05:14:18.339Z,100551.45
2018-06-03T05:16:46.849Z,100551.92
2018-06-03T05:19:15.393Z,100549.89
2018-06-03T05:21:43.899Z,100548.92
2018-06-03T05:24:12.371Z,100547.73
2018-06-03T05:26:41.003Z,100546.20
2018-06-03T05:29:09.524Z,100553.69
2018-06-03T05:31:38.035Z,100554.61
2018-06-03T05:34:06.735Z,100554.37
2018-06-03T05:36:35.223Z,100550.79
2018-06-03T05:39:04.598Z,100554.69
2018-06-03T05:41:33.139Z,100560.39
2018-06-03T05:44:01.599Z,100559.20
2018-06-03T05:46:30.131Z,100560.31
2018-06-03T05:48:58.656Z,100555.92
2018-06-03T05:51:27.274Z,100558.20
2018-06-03T05:53:55.783Z,100552.20
2018-06-03T05:56:24.295Z,100548.28
2018-06-03T05:58:52.727Z,100551.58
2018-06-03T06:01:21.176Z,100550.72
2018-06-03T06:03:49.956Z,100554.53
2018-06-03T06:06:18.596Z,100550.74
2018-06-03T06:08:47.063Z,100555.17
2018-06-03T06:11:15.591Z,100553.39
2018-06-03T06:13:44.110Z,100554.92
2018-06-03T06:16:12.736Z,100557.97
2018-06-03T06:18:41.344Z,100552.46
2018-06-03T06:21:09.872Z,100550.31
2018-06-03T06:23:38.331Z,100555.46
2018-06-03T06:26:06.935Z,100557.52
2018-06-03T06:28:35.548Z,100563.49
2018-06-03T06:31:03.976Z,100562.47
2018-06-03T06:33:32.431Z,100558.87
2018-06-03T06:36:00.945Z,100566.04
2018-06-03T06:38:29.405Z,100563.97
2018-06-03T06:40:57.880Z,100556.52
2018-06-03T06:43:26.388Z,100561.70
2018-06-03T06:45:54.995Z,100561.02
2018-06-03T06:48:23.496Z,100563.50
2018-06-03T06:50:51.976Z,100564.17
2018-06-03T06:53:20.499Z,100564.51
2018-06-03T06:55:48.969Z,100564.38
2018-06-03T06:58:17.655Z,100573.63
2018-06-03T07:00:46.193Z,100574.12
2018-06-03T07:03:14.673Z,100576.66
2018-06-03T07:05:43.419Z,100569.71
2018-06-03T07:08:11.867Z,100572.92
2018-06-03T07:10:40.308Z,100572.44
2018-06-03T07:13:08.878Z,100572.30
2018-06-03T07:15:37.332Z,100569.31
2018-06-03T07:18:05.845Z,100569.64
2018-06-03T07:20:34.327Z,100571.08
2018-06-03T07:23:02.815Z,100569.79
2018-06-03T07:25:31.333Z,100569.19
2018-06-03T07:27:59.811Z,100563.67
2018-06-03T07:30:28.503Z,100566.02
2018-06-03T07:32:57.013Z,100559.05
2018-06-03T07:35:25.591Z,100561.69
2018-06-03T07:37:54.064Z,100565.62
2018-06-03T07:40:22.471Z,100557.47
2018-06-03T07:42:51.347Z,100559.69
2018-06-03T07:45:19.900Z,100555.24
2018-06-03T07:47:48.347Z,100557.62
2018-06-03T07:50:16.889Z,100556.25
2018-06-03T07:52:45.473Z,100556.73
2018-06-03T07:55:14.228Z,100547.08
2018-06-03T07:57:42.660Z,100548.97
2018-06-03T08:00:11.195Z,100549.95
2018-06-03T08:02:39.663Z,100549.94
2018-06-03T08:05:08.173Z,100551.31
2018-06-03T08:07:36.804Z,100550.06
2018-06-03T08:10:05.472Z,100552.06
2018-06-03T08:12:34.004Z,100550.19
2018-06-03T08:15:02.444Z,100547.73
2018-06-03T08:17:31.011Z,100543.11
2018-06-03T08:19:59.894Z,100548.10
2018-06-03T08:22:28.535Z,100544.52
2018-06-03T08:24:56.960Z,100548.09
2018-06-03T08:27:25.524Z,100543.94
2018-06-03T08:29:54.033Z,100542.79
2018-06-03T08:32:22.689Z,100542.67
2018-06-03T08:34:51.170Z,100536.27
2018-06-03T08:37:19.679Z,100538.41
2018-06-03T08:39:48.217Z,100540.76
2018-06-03T08:42:16.700Z,100534.27
2018-06-03T08:44:45.436Z,100528.83
2018-06-03T08:47:13.968Z,100537.72
2018-06-03T08:49:42.721Z,100535.63
2018-06-03T08:52:11.696Z,100533.52
2018-06-03T08:54:40.135Z,100531.81
2018-06-03T08:57:08.673Z,100536.58
2018-06-03T08:59:37.165Z,100541.20
2018-06-03T09:02:05.695Z,100534.48
2018-06-03T09:04:34.172Z,100535.11
2018-06-03T09:07:02.632Z,100527.83
2018-06-03T09:09:31.560Z,100527.36
2018-06-03T09:12:00.137Z,100518.75
2018-06-03T09:14:28.636Z,100517.16
2018-06-03T09:16:57.067Z,100525.77
2018-06-03T09:19:25.566Z,100523.00
2018-06-03T09:21:54.433Z,100511.31
2018-06-03T09:24:23.115Z,100511.16
2018-06-03T09:26:51.556Z,100502.03
2018-06-03T09:29:20.119Z,100497.28
2018-06-03T09:31:48.592Z,100496.86
2018-06-03T09:34:17.093Z,100487.59
2018-06-03T09:36:45.584Z,100487.02
2018-06-03T09:39:14.144Z,100477.78
2018-06-03T09:41:42.683Z,100478.22
2018-06-03T09:44:11.299Z,100478.29
2018-06-03T09:46:39.777Z,100481.28
2018-06-03T09:49:08.188Z,100476.05
2018-06-03T09:51:36.672Z,100479.66
2018-06-03T09:54:05.344Z,100470.86
2018-06-03T09:56:33.793Z,100465.48
2018-06-03T09:59:02.287Z,100458.70
2018-06-03T10:01:30.820Z,100463.16
2018-06-03T10:03:59.244Z,100459.81
2018-06-03T10:06:27.724Z,100456.86
2018-06-03T10:08:56.208Z,100454.75
2018-06-03T10:11:24.696Z,100459.04
2018-06-03T10:13:53.574Z,100452.77
2018-06-03T10:16:22.045Z,100448.98
2018-06-03T10:18:50.581Z,100450.37
2018-06-03T10:21:19.104Z,100449.55
2018-06-03T10:23:47.567Z,100446.89
2018-06-03T10:26:16.263Z,100442.50
2018-06-03T10:28:44.775Z,100444.22
2018-06-03T10:31:13.310Z,100443.30
2018-06-03T10:33:41.779Z,100441.16
2018-06-03T10:36:10.267Z,100443.75
2018-06-03T10:38:39.024Z,100446.97
2018-06-03T10:41:07.560Z,100447.61
2018-06-03T10:43:36.040Z,100448.70
2018-06-03T10:46:04.566Z,100449.47
2018-06-03T10:48:33.024Z,100449.61
2018-06-03T10:51:01.923Z,100452.48
2018-06-03T10:53:30.444Z,100450.06
2018-06-03T10:55:58.880Z,100448.97
2018-06-03T10:58:27.459Z,100434.92
2018-06-03T11:00:55.935Z,100434.23
2018-06-03T11:03:24.783Z,100429.75
2018-06-03T11:05:53.331Z,100429.27
2018-06-03T11:08:21.742Z,100425.45
2018-06-03T11:10:50.219Z,100424.78
2018-06-03T11:13:18.700Z,100420.80
2018-06-03T11:15:47.184Z,100424.13
2018-06-03T11:18:15.672Z,100419.08
2018-06-03T11:20:44.164Z,100420.55
2018-06-03T11:23:12.691Z,100421.27
2018-06-03T11:25:41.156Z,100416.02
2018-06-03T11:28:10.557Z,100411.33
2018-06-03T11:30:39.075Z,100406.15
2018-06-03T11:33:07.495Z,100405.22
2018-06-03T11:35:36.078Z,100406.71
2018-06-03T11:38:04.548Z,100399.34
2018-06-03T11:40:33.317Z,100397.96
2018-06-03T11:43:01.762Z,100392.80
2018-06-03T11:45:30.220Z,100403.70
2018-06-03T11:47:58.879Z,100406.59
2018-06-03T11:50:27.445Z,100400.36
2018-06-03T11:52:55.988Z,100398.89
2018-06-03T11:55:24.546Z,100401.00
2018-06-03T11:58:35.475Z,100400.22
2018-06-03T12:01:03.971Z,100399.13
2018-06-03T12:03:32.622Z,100404.64
2018-06-03T12:06:01.131Z,100400.47
2018-06-03T12:08:29.580Z,100387.67
2018-06-03T12:10:58.355Z,100385.55
2018-06-03T12:13:26.888Z,100381.10
2018-06-03T12:15:55.392Z,100375.90
2018-06-03T12:18:23.880Z,100377.37
2018-06-03T12:20:52.335Z,100378.06
2018-06-03T12:23:21.338Z,100376.13
2018-06-03T12:25:49.868Z,100373.85
2018-06-03T12:28:18.321Z,100370.61
2018-06-03T12:30:46.881Z,100372.23
2018-06-03T12:33:15.331Z,100370.83
2018-06-03T12:35:44.216Z,100372.31
2018-06-03T12:38:12.768Z,100365.63
2018-06-03T12:40:41.239Z,100360.56
2018-06-03T12:43:09.743Z,100364.22
2018-06-03T12:45:38.208Z,100362.41
2018-06-03T12:48:06.973Z,100355.48
2018-06-03T12:50:35.432Z,100356.95
2018-06-03T12:53:04.116Z,100347.06
2018-06-03T12:55:32.612Z,100355.53
2018-06-03T12:58:01.109Z,100343.36
2018-06-03T13:00:29.549Z,100337.94
2018-06-03T13:02:57.996Z,100336.02
2018-06-03T13:05:26.656Z,100335.36
2018-06-03T13:07:55.199Z,100336.50
2018-06-03T13:10:23.687Z,100330.12
2018-06-03T13:12:52.200Z,100325.03
2018-06-03T13:15:20.672Z,100324.23
2018-06-03T13:17:49.195Z,100321.00
2018-06-03T13:20:17.638Z,100321.10
2018-06-03T13:22:46.163Z,100315.66
2018-06-03T13:25:14.616Z,100309.38
2018-06-03T13:27:43.132Z,100306.05
2018-06-03T13:30:11.612Z,100309.95
2018-06-03T13:32:40.119Z,100299.27
2018-06-03T13:35:08.659Z,100292.45
2018-06-03T13:37:37.127Z,100287.22
2018-06-03T13:40:05.687Z,100283.12
2018-06-03T13:42:34.211Z,100283.30
2018-06-03T13:45:02.717Z,100273.06
2018-06-03T13:47:31.128Z,100276.06
2018-06-03T13:49:59.747Z,100275.44
2018-06-03T13:52:28.292Z,100271.11
2018-06-03T13:54:56.777Z,100269.73
2018-06-03T13:57:25.215Z,100267.79
2018-06-03T13:59:53.695Z,100261.36
2018-06-03T14:02:22.541Z,100261.91
2018-06-03T14:04:51.291Z,100254.63
2018-06-03T14:07:19.824Z,100254.38
2018-06-03T14:09:48.245Z,100250.94
2018-06-03T14:12:17.202Z,100242.09
2018-06-03T14:14:45.643Z,100240.47
2018-06-03T14:17:14.267Z,100238.24
2018-06-03T14:19:42.793Z,100232.59
2018-06-03T14:22:11.319Z,100226.58
2018-06-03T14:24:39.839Z,100228.56
2018-06-03T14:27:08.324Z,100224.23
2018-06-03T14:29:36.764Z,100217.64
2018-06-03T14:32:05.260Z,100217.21
2018-06-03T14:34:33.703Z,100214.14
2018-06-03T14:37:02.131Z,100208.64
2018-06-03T14:39:30.607Z,100208.53
2018-06-03T14:41:59.075Z,100205.38
2018-06-03T14:44:27.687Z,100200.77
2018-06-03T14:46:56.207Z,100193.31
2018-06-03T14:49:24.628Z,100190.05
2018-06-03T14:51:53.192Z,100178.55
2018-06-03T14:54:21.608Z,100184.15
2018-06-03T14:56:50.176Z,100175.87
2018-06-03T14:59:21.624Z,100177.61
2018-06-03T15:01:50.164Z,100178.79
2018-06-03T15:04:18.659Z,100166.57
2018-06-03T15:06:47.144Z,100163.62
2018-06-03T15:09:15.662Z,100164.47
2018-06-03T15:11:44.144Z,100163.66
2018-06-03T15:14:12.644Z,100156.78
2018-06-03T15:16:41.053Z,100158.19
2018-06-03T15:19:09.632Z,100148.83
2018-06-03T15:21:38.139Z,100146.48
2018-06-03T15:24:06.672Z,100145.05
2018-06-03T15:26:35.112Z,100153.30
2018-06-03T15:29:03.691Z,100147.83
2018-06-03T15:31:32.229Z,100149.73
2018-06-03T15:34:00.740Z,100139.80
2018-06-03T15:36:29.220Z,100139.97
2018-06-03T15:38:57.648Z,100141.89
2018-06-03T15:41:26.108Z,100133.78
2018-06-03T15:43:54.655Z,100124.40
2018-06-03T15:46:23.097Z,100127.27
2018-06-03T15:48:51.623Z,100130.03
2018-06-03T15:51:20.060Z,100135.80
2018-06-03T15:53:48.618Z,100135.58
2018-06-03T15:56:17.056Z,100126.80
2018-06-03T15:58:45.607Z,100130.09
2018-06-03T16:01:14.559Z,100128.37
2018-06-03T16:03:42.987Z,100125.53
2018-06-03T16:06:11.421Z,100124.91
2018-06-03T16:08:39.896Z,100120.92
2018-06-03T16:11:08.414Z,100114.09
2018-06-03T16:13:36.945Z,100109.56
2018-06-03T16:16:05.703Z,100105.91
2018-06-03T16:18:34.283Z,100103.36
2018-06-03T16:21:02.725Z,100104.00
2018-06-03T16:23:31.251Z,100103.55
2018-06-03T16:25:59.772Z,100103.93
2018-06-03T16:28:28.276Z,100106.80
2018-06-03T16:30:56.728Z,100107.24
2018-06-03T16:33:25.257Z,100105.88
2018-06-03T16:35:53.721Z,100100.77
2018-06-03T16:38:22.166Z,100102.64
2018-06-03T16:40:50.707Z,100100.51
2018-06-03T16:43:19.368Z,100098.67
2018-06-03T16:45:47.898Z,100099.19
2018-06-03T16:48:16.400Z,100095.19
2018-06-03T16:50:44.837Z,100086.48
2018-06-03T16:53:13.525Z,100083.73
2018-06-03T16:55:42.088Z,100087.94
2018-06-03T16:58:10.548Z,100087.30
2018-06-03T17:00:39.072Z,100083.31
2018-06-03T17:03:07.483Z,100077.73
2018-06-03T17:05:35.906Z,100083.97
2018-06-03T17:08:04.461Z,100081.53
2018-06-03T17:10:32.928Z,100081.25
2018-06-03T17:13:01.384Z,100079.71
2018-06-03T17:15:29.828Z,100078.17
2018-06-03T17:17:58.348Z,100072.44
2018-06-03T17:20:26.893Z,100074.00
2018-06-03T17:22:55.306Z,100071.59
2018-06-03T17:25:23.799Z,100068.66
2018-06-03T17:27:52.228Z,100072.70
2018-06-03T17:30:20.844Z,100072.45
2018-06-03T17:32:49.361Z,100066.43
2018-06-03T17:35:17.977Z,100062.75
2018-06-03T17:37:46.467Z,100059.16
2018-06-03T17:40:14.936Z,100060.12
2018-06-03T17:42:43.728Z,100059.41
2018-06-03T17:45:12.217Z,100058.23
2018-06-03T17:47:40.734Z,100059.97
2018-06-03T17:50:09.247Z,100063.05
2018-06-03T17:52:37.748Z,100056.72
2018-06-03T17:55:06.275Z,100059.56
2018-06-03T17:57:34.821Z,100059.55
2018-06-03T18:00:03.411Z,100053.81
2018-06-03T18:02:32.007Z,100058.47
2018-06-03T18:05:00.532Z,100056.30
2018-06-03T18:07:29.011Z,100046.94
2018-06-03T18:09:57.484Z,100056.80
2018-06-03T18:12:25.997Z,100055.52
2018-06-03T18:14:54.491Z,100058.98
2018-06-03T18:17:22.960Z,100059.88
2018-06-03T18:19:51.828Z,100061.95
2018-06-03T18:22:20.349Z,100055.95
2018-06-03T18:24:48.824Z,100058.63
2018-06-03T18:27:17.299Z,100061.77
2018-06-03T18:29:45.774Z,100055.38
2018-06-03T18:32:14.271Z,100058.50
2018-06-03T18:34:42.740Z,100061.45
2018-06-03T18:37:11.215Z,100059.73
2018-06-03T18:39:39.668Z,100065.02
2018-06-03T18:42:08.248Z,100068.61
2018-06-03T18:44:36.764Z,100072.84
2018-06-03T18:47:05.305Z,100068.93
2018-06-03T18:49:33.831Z,100065.17
2018-06-03T18:52:02.428Z,100063.39
2018-06-03T18:54:30.892Z,100060.08
2018-06-03T18:56:59.390Z,100066.38
2018-06-03T18:59:27.880Z,100060.67
2018-06-03T19:01:56.562Z,100058.88
2018-06-03T19:04:24.983Z,100050.05
2018-06-03T19:06:53.416Z,100045.36
2018-06-03T19:09:21.909Z,100049.80
2018-06-03T19:11:50.532Z,100044.66
2018-06-03T19:14:19.205Z,100042.03
2018-06-03T19:16:47.765Z,100048.16
2018-06-03T19:19:16.237Z,100047.69
2018-06-03T19:21:44.776Z,100048.75
2018-06-03T19:24:13.344Z,100046.19
2018-06-03T19:26:41.833Z,100051.75
2018-06-03T19:29:10.332Z,100042.51
2018-06-03T19:31:39.376Z,100051.80
2018-06-03T19:34:07.907Z,100049.80
2018-06-03T19:36:36.348Z,100055.88
2018-06-03T19:39:06.896Z,100053.18
2018-06-03T19:41:35.431Z,100052.53
2018-06-03T19:44:03.960Z,100053.23
2018-06-03T19:46:32.454Z,100055.25
2018-06-03T19:49:00.916Z,100059.68
2018-06-03T19:51:29.471Z,100061.31
2018-06-03T19:53:58.071Z,100065.73
2018-06-03T19:56:26.651Z,100064.07
2018-06-03T19:58:55.134Z,100065.61
2018-06-03T20:01:23.719Z,100063.58
2018-06-03T20:03:52.230Z,100062.80
2018-06-03T20:06:20.740Z,100061.45
2018-06-03T20:08:49.174Z,100063.94
2018-06-03T20:11:17.690Z,100058.91
2018-06-03T20:13:46.196Z,100061.65
2018-06-03T20:16:14.675Z,100058.57
2018-06-03T20:18:43.256Z,100051.20
2018-06-03T20:21:12.979Z,100048.03
2018-06-03T20:23:41.796Z,100051.47
2018-06-03T20:26:11.285Z,100047.19
2018-06-03T20:28:39.925Z,100048.89
2018-06-03T20:31:08.424Z,100047.26
2018-06-03T20:33:36.944Z,100054.02
2018-06-03T20:36:05.511Z,100045.33
2018-06-03T20:38:33.998Z,100051.36
2018-06-03T20:41:02.557Z,100047.66
2018-06-03T20:43:31.077Z,100053.06
2018-06-03T20:45:59.592Z,100045.93
2018-06-03T20:48:28.075Z,100057.80
2018-06-03T20:50:56.535Z,100060.87
2018-06-03T20:53:25.000Z,100063.89
2018-06-03T20:55:53.463Z,100061.08
2018-06-03T20:58:21.968Z,100062.92
2018-06-03T21:00:50.416Z,100063.94
2018-06-03T21:03:18.915Z,100068.12
2018-06-03T21:05:47.536Z,100067.63
2018-06-03T21:08:16.010Z,100074.14
2018-06-03T21:10:44.563Z,100068.45
2018-06-03T21:13:13.029Z,100079.55
2018-06-03T21:15:41.523Z,100077.78
2018-06-03T21:18:09.931Z,100080.98
2018-06-03T21:20:38.479Z,100087.48
2018-06-03T21:23:06.955Z,100088.52
2018-06-03T21:25:35.483Z,100092.73
2018-06-03T21:28:04.556Z,100095.03
2018-06-03T21:30:33.071Z,100095.41
2018-06-03T21:33:01.740Z,100091.98
2018-06-03T21:35:30.275Z,100096.42
2018-06-03T21:37:58.751Z,100096.67
2018-06-03T21:40:27.489Z,100092.19
2018-06-03T21:42:55.908Z,100098.55
2018-06-03T21:45:24.331Z,100107.28
2018-06-03T21:47:52.970Z,100106.26
2018-06-03T21:50:21.542Z,100098.33
2018-06-03T21:52:50.187Z,100093.70
2018-06-03T21:55:18.615Z,100089.71
2018-06-03T21:57:47.036Z,100091.59
2018-06-03T22:00:15.519Z,100093.91
2018-06-03T22:02:44.012Z,100089.73
2018-06-03T22:05:12.772Z,100089.00
2018-06-03T22:07:41.309Z,100094.39
2018-06-03T22:10:09.803Z,100095.81
2018-06-03T22:12:38.363Z,100103.19
2018-06-03T22:15:07.029Z,100102.20
2018-06-03T22:17:35.615Z,100101.44
2018-06-03T22:20:04.159Z,100096.80
2018-06-03T22:22:32.651Z,100099.83
2018-06-03T22:25:01.127Z,100095.41
2018-06-03T22:27:29.548Z,100098.82
2018-06-03T22:29:58.178Z,100100.06
2018-06-03T22:32:26.596Z,100092.61
2018-06-03T22:34:55.020Z,100095.00
2018-06-03T22:37:23.463Z,100089.44
2018-06-03T22:39:51.920Z,100087.51
2018-06-03T22:42:20.419Z,100089.48
2018-06-03T22:44:48.899Z,100082.98
2018-06-03T22:47:17.668Z,100078.98
2018-06-03T22:49:46.110Z,100085.99
2018-06-03T22:52:14.596Z,100078.70
2018-06-03T22:54:43.199Z,100077.95
2018-06-03T22:57:53.600Z,100078.50
2018-06-03T23:00:30.008Z,100077.16
2018-06-03T23:03:03.834Z,100079.05
2018-06-03T23:05:32.405Z,100079.59
2018-06-03T23:08:00.880Z,100079.64
2018-06-03T23:10:29.390Z,100080.54
2018-06-03T23:12:57.831Z,100080.56
2018-06-03T23:15:26.290Z,100075.95
2018-06-03T23:17:54.999Z,100069.21
2018-06-03T23:20:23.531Z,100064.89
2018-06-03T23:22:52.067Z,100065.47
2018-06-03T23:25:20.557Z,100067.97
2018-06-03T23:27:49.109Z,100066.34
2018-06-03T23:30:17.778Z,100063.59
2018-06-03T23:32:46.260Z,100062.67
2018-06-03T23:35:14.695Z,100056.94
2018-06-03T23:37:43.139Z,100052.58
2018-06-03T23:40:11.588Z,100053.48
2018-06-03T23:42:40.352Z,100059.44
2018-06-03T23:45:08.883Z,100051.45
2018-06-03T23:47:37.383Z,100054.23
2018-06-03T23:50:05.991Z,100054.25
2018-06-03T23:52:34.480Z,100054.42
2018-06-03T23:55:03.338Z,100058.66
2018-06-03T23:57:31.871Z,100054.61
